AAL2261 KSTL-KDFW
Flight info
| Callsign | AAL2261 |
|---|---|
| Flight time | N/A |
| Altitude | 34000 |
| Route | JAHNY6 MAP RZC FSM KOMMA RRNET SEEVR4 |
| Aircraft | A320/M-SDE3FGHIRWY/LB1 |
Departure
| Time | 2026-05-05 20:56 |
|---|---|
| Airport | St. Louis Lambert International Airport (KSTL) |
Arrival
| Time | N/A |
|---|---|
| Airport | Dallas Fort Worth International Airport (KDFW) |
| Time | Latitude | Longitude | Altitude | Speed | Heading |
|---|---|---|---|---|---|
| 2026-05-05 20:22 | 38.74282 | -90.36337 | 551 ft | 0 kts | 166° |
| 2026-05-05 20:39 | 38.74291 | -90.36338 | 551 ft | 1 kts | 206° |
| 2026-05-05 20:39 | 38.74301 | -90.36327 | 551 ft | 2 kts | 214° |
| 2026-05-05 20:39 | 38.74312 | -90.36320 | 550 ft | 2 kts | 206° |
| 2026-05-05 20:39 | 38.74323 | -90.36312 | 550 ft | 2 kts | 210° |
| 2026-05-05 20:40 | 38.74335 | -90.36304 | 549 ft | 2 kts | 208° |
| 2026-05-05 20:40 | 38.74347 | -90.36295 | 549 ft | 2 kts | 209° |
| 2026-05-05 20:40 | 38.74361 | -90.36285 | 549 ft | 1 kts | 209° |
| 2026-05-05 20:40 | 38.74369 | -90.36280 | 548 ft | 1 kts | 185° |
| 2026-05-05 20:41 | 38.74379 | -90.36284 | 548 ft | 0 kts | 130° |
| 2026-05-05 20:41 | 38.74382 | -90.36292 | 548 ft | 0 kts | 118° |
| 2026-05-05 20:41 | 38.74383 | -90.36295 | 548 ft | 0 kts | 123° |
| 2026-05-05 20:50 | 38.74376 | -90.36279 | 548 ft | 3 kts | 122° |
| 2026-05-05 20:50 | 38.74359 | -90.36244 | 548 ft | 5 kts | 121° |
| 2026-05-05 20:50 | 38.74336 | -90.36194 | 547 ft | 7 kts | 121° |
| 2026-05-05 20:51 | 38.74305 | -90.36128 | 547 ft | 9 kts | 121° |
| 2026-05-05 20:51 | 38.74269 | -90.36051 | 547 ft | 10 kts | 121° |
| 2026-05-05 20:51 | 38.74289 | -90.35984 | 547 ft | 8 kts | 90° |
| 2026-05-05 20:51 | 38.74260 | -90.35908 | 547 ft | 10 kts | 122° |
| 2026-05-05 20:52 | 38.74221 | -90.35828 | 547 ft | 11 kts | 122° |
| 2026-05-05 20:52 | 38.74180 | -90.35740 | 547 ft | 12 kts | 121° |
| 2026-05-05 20:52 | 38.74132 | -90.35648 | 547 ft | 12 kts | 124° |
| 2026-05-05 20:52 | 38.74085 | -90.35556 | 548 ft | 12 kts | 123° |
| 2026-05-05 20:53 | 38.74042 | -90.35463 | 549 ft | 12 kts | 116° |
| 2026-05-05 20:53 | 38.73995 | -90.35372 | 550 ft | 12 kts | 127° |
| 2026-05-05 20:53 | 38.73951 | -90.35282 | 552 ft | 11 kts | 122° |
| 2026-05-05 20:53 | 38.73912 | -90.35203 | 554 ft | 9 kts | 122° |
| 2026-05-05 20:54 | 38.73879 | -90.35136 | 557 ft | 7 kts | 123° |
| 2026-05-05 20:54 | 38.73854 | -90.35086 | 559 ft | 5 kts | 123° |
| 2026-05-05 20:54 | 38.73824 | -90.35025 | 562 ft | 12 kts | 122° |
| 2026-05-05 20:54 | 38.73790 | -90.34955 | 567 ft | 13 kts | 122° |
| 2026-05-05 20:55 | 38.73736 | -90.34847 | 573 ft | 13 kts | 123° |
| 2026-05-05 20:55 | 38.73707 | -90.34730 | 581 ft | 13 kts | 66° |
| 2026-05-05 20:55 | 38.73792 | -90.34673 | 583 ft | 15 kts | 330° |
| 2026-05-05 20:55 | 38.73893 | -90.34875 | 567 ft | 61 kts | 300° |
| 2026-05-05 20:56 | 38.74275 | -90.35647 | 547 ft | 135 kts | 304° |
| 2026-05-05 20:56 | 38.74862 | -90.36826 | 789 ft | 168 kts | 305° |
| 2026-05-05 20:56 | 38.75498 | -90.38097 | 1386 ft | 176 kts | 306° |
| 2026-05-05 20:56 | 38.76179 | -90.39475 | 2076 ft | 189 kts | 304° |
| 2026-05-05 20:57 | 38.76833 | -90.40842 | 2941 ft | 190 kts | 304° |
| 2026-05-05 20:57 | 38.77531 | -90.42295 | 3498 ft | 207 kts | 304° |
| 2026-05-05 20:57 | 38.78132 | -90.43759 | 3986 ft | 225 kts | 290° |
| 2026-05-05 20:57 | 38.78163 | -90.46017 | 4576 ft | 255 kts | 257° |
| 2026-05-05 20:58 | 38.77294 | -90.48003 | 5445 ft | 267 kts | 240° |
| 2026-05-05 20:58 | 38.76256 | -90.49818 | 6452 ft | 266 kts | 240° |
| 2026-05-05 20:58 | 38.75205 | -90.51483 | 7353 ft | 270 kts | 234° |
| 2026-05-05 20:58 | 38.73964 | -90.53030 | 8276 ft | 275 kts | 228° |
| 2026-05-05 20:59 | 38.72343 | -90.54727 | 9394 ft | 275 kts | 226° |
| 2026-05-05 20:59 | 38.70879 | -90.56210 | 10382 ft | 275 kts | 226° |
| 2026-05-05 20:59 | 38.69632 | -90.57481 | 10992 ft | 282 kts | 226° |
| 2026-05-05 21:00 | 38.66276 | -90.60921 | 12661 ft | 296 kts | 226° |
| 2026-05-05 21:00 | 38.64596 | -90.62634 | 13615 ft | 298 kts | 226° |
| 2026-05-05 21:00 | 38.62938 | -90.64330 | 14451 ft | 302 kts | 226° |
| 2026-05-05 21:00 | 38.61270 | -90.66036 | 15274 ft | 305 kts | 226° |
| 2026-05-05 21:01 | 38.60343 | -90.66988 | 15724 ft | 308 kts | 226° |
| 2026-05-05 21:01 | 38.58202 | -90.69186 | 16731 ft | 312 kts | 226° |
| 2026-05-05 21:01 | 38.56503 | -90.70927 | 17501 ft | 316 kts | 226° |
| 2026-05-05 21:01 | 38.54802 | -90.72669 | 18244 ft | 319 kts | 226° |
| 2026-05-05 21:02 | 38.53918 | -90.73572 | 18618 ft | 321 kts | 226° |
| 2026-05-05 21:02 | 38.52083 | -90.75446 | 19370 ft | 325 kts | 226° |
| 2026-05-05 21:02 | 38.50218 | -90.77349 | 20105 ft | 329 kts | 226° |
| 2026-05-05 21:02 | 38.48459 | -90.79144 | 20775 ft | 332 kts | 227° |
| 2026-05-05 21:03 | 38.46656 | -90.80980 | 21440 ft | 336 kts | 227° |
| 2026-05-05 21:03 | 38.44836 | -90.82832 | 22073 ft | 339 kts | 227° |
| 2026-05-05 21:03 | 38.43080 | -90.84620 | 22667 ft | 343 kts | 227° |
| 2026-05-05 21:03 | 38.41776 | -90.85946 | 23103 ft | 345 kts | 227° |
| 2026-05-05 21:04 | 38.39656 | -90.88100 | 23778 ft | 349 kts | 227° |
| 2026-05-05 21:04 | 38.37655 | -90.90133 | 24389 ft | 352 kts | 227° |
| 2026-05-05 21:04 | 38.35650 | -90.92168 | 24973 ft | 356 kts | 227° |
| 2026-05-05 21:04 | 38.33676 | -90.94168 | 25515 ft | 360 kts | 227° |
| 2026-05-05 21:05 | 38.31691 | -90.96179 | 26047 ft | 363 kts | 227° |
| 2026-05-05 21:05 | 38.29672 | -90.98183 | 26581 ft | 367 kts | 225° |
| 2026-05-05 21:05 | 38.27752 | -90.99911 | 27052 ft | 372 kts | 224° |
| 2026-05-05 21:05 | 38.25950 | -91.01493 | 27461 ft | 374 kts | 224° |
| 2026-05-05 21:06 | 38.23460 | -91.03680 | 27998 ft | 378 kts | 224° |
| 2026-05-05 21:06 | 38.21310 | -91.05566 | 28448 ft | 381 kts | 224° |
| 2026-05-05 21:06 | 38.19172 | -91.07439 | 28893 ft | 384 kts | 224° |
| 2026-05-05 21:06 | 38.16978 | -91.09360 | 29329 ft | 386 kts | 224° |
| 2026-05-05 21:07 | 38.14759 | -91.11301 | 29808 ft | 387 kts | 224° |
| 2026-05-05 21:07 | 38.12645 | -91.13146 | 30360 ft | 386 kts | 224° |
| 2026-05-05 21:07 | 38.10454 | -91.15056 | 30925 ft | 384 kts | 225° |
| 2026-05-05 21:07 | 38.08252 | -91.16976 | 31446 ft | 383 kts | 225° |
| 2026-05-05 21:08 | 38.06428 | -91.18567 | 31857 ft | 382 kts | 225° |
| 2026-05-05 21:08 | 38.04700 | -91.20126 | 32242 ft | 379 kts | 227° |
| 2026-05-05 21:08 | 38.01740 | -91.23148 | 32835 ft | 375 kts | 232° |
| 2026-05-05 21:08 | 37.99839 | -91.25381 | 33183 ft | 373 kts | 235° |
| 2026-05-05 21:09 | 37.98055 | -91.27698 | 33422 ft | 375 kts | 236° |
| 2026-05-05 21:09 | 37.96353 | -91.29959 | 33562 ft | 381 kts | 236° |
| 2026-05-05 21:09 | 37.94466 | -91.32456 | 33826 ft | 384 kts | 236° |
| 2026-05-05 21:09 | 37.92819 | -91.34631 | 33939 ft | 386 kts | 236° |
| 2026-05-05 21:10 | 37.89809 | -91.38596 | 33942 ft | 385 kts | 236° |
| 2026-05-05 21:10 | 37.89543 | -91.38955 | 33932 ft | 386 kts | 225° |
| 2026-05-05 21:10 | 37.87809 | -91.41298 | 33949 ft | 396 kts | 226° |
| 2026-05-05 21:11 | 37.83904 | -91.46365 | 33974 ft | 417 kts | 226° |
| 2026-05-05 21:11 | 37.79731 | -91.51794 | 33989 ft | 422 kts | 226° |
| 2026-05-05 21:12 | 37.75686 | -91.57084 | 33997 ft | 422 kts | 226° |
| 2026-05-05 21:12 | 37.71532 | -91.62525 | 34001 ft | 422 kts | 226° |
| 2026-05-05 21:13 | 37.67394 | -91.67954 | 34003 ft | 422 kts | 226° |
| 2026-05-05 21:13 | 37.63160 | -91.73503 | 34003 ft | 422 kts | 226° |
| 2026-05-05 21:14 | 37.59111 | -91.79061 | 34003 ft | 422 kts | 230° |
| 2026-05-05 21:14 | 37.55545 | -91.85094 | 34004 ft | 422 kts | 234° |
| 2026-05-05 21:15 | 37.52056 | -91.91359 | 34003 ft | 422 kts | 235° |
| 2026-05-05 21:15 | 37.48589 | -91.97568 | 34003 ft | 422 kts | 234° |
| 2026-05-05 21:16 | 37.45335 | -92.03382 | 34003 ft | 422 kts | 234° |
| 2026-05-05 21:16 | 37.41871 | -92.09556 | 34003 ft | 422 kts | 234° |
| 2026-05-05 21:17 | 37.38412 | -92.15708 | 34003 ft | 422 kts | 234° |
| 2026-05-05 21:17 | 37.34973 | -92.21815 | 34003 ft | 422 kts | 234° |
| 2026-05-05 21:18 | 37.31547 | -92.27889 | 34003 ft | 422 kts | 234° |
| 2026-05-05 21:18 | 37.28145 | -92.33910 | 34003 ft | 422 kts | 234° |
| 2026-05-05 21:19 | 37.24680 | -92.40031 | 34003 ft | 422 kts | 234° |
| 2026-05-05 21:19 | 37.21183 | -92.46195 | 34003 ft | 422 kts | 234° |
| 2026-05-05 21:20 | 37.17696 | -92.52329 | 34003 ft | 422 kts | 234° |
| 2026-05-05 21:20 | 37.14249 | -92.58383 | 34004 ft | 422 kts | 234° |
| 2026-05-05 21:21 | 37.10831 | -92.64378 | 34004 ft | 422 kts | 234° |
| 2026-05-05 21:21 | 37.07396 | -92.70410 | 34003 ft | 422 kts | 234° |
| 2026-05-05 21:22 | 37.03947 | -92.76454 | 34003 ft | 422 kts | 234° |
| 2026-05-05 21:22 | 37.00458 | -92.82546 | 34003 ft | 422 kts | 234° |
| 2026-05-05 21:23 | 36.96919 | -92.88708 | 34003 ft | 422 kts | 234° |
| 2026-05-05 21:23 | 36.93363 | -92.94888 | 34003 ft | 422 kts | 234° |
| 2026-05-05 21:24 | 36.89861 | -93.00964 | 34003 ft | 422 kts | 234° |
| 2026-05-05 21:24 | 36.86406 | -93.06901 | 34003 ft | 423 kts | 234° |
| 2026-05-05 21:25 | 36.82883 | -93.12957 | 34003 ft | 423 kts | 234° |
| 2026-05-05 21:25 | 36.79309 | -93.19111 | 34003 ft | 423 kts | 234° |
| 2026-05-05 21:26 | 36.75771 | -93.25201 | 34003 ft | 423 kts | 234° |
| 2026-05-05 21:26 | 36.72273 | -93.31211 | 34003 ft | 423 kts | 234° |
| 2026-05-05 21:27 | 36.68701 | -93.37340 | 34003 ft | 423 kts | 234° |
| 2026-05-05 21:27 | 36.65332 | -93.43111 | 34003 ft | 423 kts | 234° |
| 2026-05-05 21:28 | 36.61841 | -93.49080 | 34003 ft | 423 kts | 234° |
| 2026-05-05 21:28 | 36.58273 | -93.55171 | 34003 ft | 423 kts | 234° |
| 2026-05-05 21:29 | 36.54836 | -93.61028 | 34003 ft | 423 kts | 234° |
| 2026-05-05 21:29 | 36.51515 | -93.66682 | 34003 ft | 423 kts | 233° |
| 2026-05-05 21:30 | 36.47870 | -93.72900 | 34003 ft | 423 kts | 233° |
| 2026-05-05 21:30 | 36.44334 | -93.78907 | 34003 ft | 423 kts | 233° |
| 2026-05-05 21:31 | 36.40794 | -93.84903 | 34003 ft | 423 kts | 233° |
| 2026-05-05 21:31 | 36.37270 | -93.90860 | 34003 ft | 423 kts | 233° |
| 2026-05-05 21:32 | 36.33684 | -93.96910 | 34003 ft | 423 kts | 233° |
| 2026-05-05 21:32 | 36.30083 | -94.02970 | 34003 ft | 423 kts | 233° |
| 2026-05-05 21:33 | 36.25893 | -94.08360 | 34003 ft | 423 kts | 217° |
| 2026-05-05 21:33 | 36.20697 | -94.12070 | 34003 ft | 423 kts | 201° |
| 2026-05-05 21:34 | 36.14843 | -94.13902 | 34006 ft | 423 kts | 188° |
| 2026-05-05 21:34 | 36.09032 | -94.14896 | 34004 ft | 423 kts | 188° |
| 2026-05-05 21:35 | 36.03037 | -94.15917 | 34003 ft | 423 kts | 188° |
| 2026-05-05 21:35 | 35.97207 | -94.16932 | 34003 ft | 423 kts | 188° |
| 2026-05-05 21:36 | 35.91419 | -94.17947 | 34003 ft | 423 kts | 188° |
| 2026-05-05 21:36 | 35.85607 | -94.18964 | 34003 ft | 423 kts | 188° |
| 2026-05-05 21:37 | 35.79669 | -94.20001 | 34003 ft | 423 kts | 188° |
| 2026-05-05 21:37 | 35.73817 | -94.21026 | 34003 ft | 423 kts | 188° |
| 2026-05-05 21:38 | 35.67987 | -94.22046 | 34003 ft | 423 kts | 188° |
| 2026-05-05 21:38 | 35.62085 | -94.23079 | 34003 ft | 423 kts | 188° |
| 2026-05-05 21:39 | 35.56246 | -94.24102 | 34003 ft | 423 kts | 188° |
| 2026-05-05 21:39 | 35.50332 | -94.25134 | 34003 ft | 423 kts | 188° |
| 2026-05-05 21:40 | 35.44403 | -94.26379 | 34003 ft | 423 kts | 194° |
| 2026-05-05 21:40 | 35.38747 | -94.28912 | 34004 ft | 423 kts | 206° |
| 2026-05-05 21:41 | 35.33644 | -94.32814 | 34004 ft | 423 kts | 218° |
| 2026-05-05 21:41 | 35.29093 | -94.37664 | 34004 ft | 423 kts | 222° |
| 2026-05-05 21:42 | 35.24697 | -94.42503 | 34003 ft | 423 kts | 222° |
| 2026-05-05 21:42 | 35.20413 | -94.47185 | 34003 ft | 423 kts | 222° |
| 2026-05-05 21:43 | 35.15923 | -94.52068 | 34003 ft | 423 kts | 222° |
| 2026-05-05 21:43 | 35.11503 | -94.56864 | 34003 ft | 423 kts | 222° |
| 2026-05-05 21:44 | 35.07114 | -94.61622 | 34004 ft | 423 kts | 222° |
| 2026-05-05 21:44 | 35.02675 | -94.66426 | 34003 ft | 423 kts | 221° |
| 2026-05-05 21:45 | 34.98245 | -94.71195 | 34003 ft | 423 kts | 221° |
| 2026-05-05 21:45 | 34.95547 | -94.74065 | 34003 ft | 423 kts | 221° |
| 2026-05-05 21:46 | 34.93558 | -94.76112 | 34021 ft | 412 kts | 228° |
| 2026-05-05 21:46 | 34.91536 | -94.78244 | 33955 ft | 399 kts | 229° |
| 2026-05-05 21:46 | 34.87320 | -94.82769 | 33864 ft | 399 kts | 228° |
| 2026-05-05 21:47 | 34.83140 | -94.87201 | 33812 ft | 400 kts | 228° |
| 2026-05-05 21:47 | 34.78927 | -94.91564 | 33783 ft | 401 kts | 227° |
| 2026-05-05 21:48 | 34.74678 | -94.95887 | 33768 ft | 400 kts | 226° |
| 2026-05-05 21:48 | 34.70435 | -95.00209 | 33761 ft | 400 kts | 226° |
| 2026-05-05 21:49 | 34.66214 | -95.04511 | 33757 ft | 400 kts | 226° |
| 2026-05-05 21:49 | 34.61968 | -95.08833 | 33755 ft | 400 kts | 226° |
| 2026-05-05 21:50 | 34.57944 | -95.12926 | 33755 ft | 400 kts | 226° |
| 2026-05-05 21:50 | 34.53580 | -95.17361 | 33754 ft | 400 kts | 226° |
| 2026-05-05 21:51 | 34.49299 | -95.21706 | 33754 ft | 400 kts | 226° |
| 2026-05-05 21:51 | 34.44992 | -95.26061 | 33753 ft | 400 kts | 226° |
| 2026-05-05 21:52 | 34.38593 | -95.32504 | 33693 ft | 401 kts | 226° |
| 2026-05-05 21:52 | 34.36431 | -95.34680 | 33430 ft | 400 kts | 226° |
| 2026-05-05 21:53 | 34.34307 | -95.36816 | 33179 ft | 397 kts | 226° |
| 2026-05-05 21:53 | 34.32198 | -95.38937 | 32930 ft | 395 kts | 226° |
| 2026-05-05 21:53 | 34.30094 | -95.41052 | 32679 ft | 393 kts | 226° |
| 2026-05-05 21:53 | 34.27998 | -95.43160 | 32429 ft | 393 kts | 226° |
| 2026-05-05 21:54 | 34.25902 | -95.45266 | 32179 ft | 393 kts | 226° |
| 2026-05-05 21:54 | 34.23786 | -95.47389 | 31928 ft | 394 kts | 226° |
| 2026-05-05 21:54 | 34.21676 | -95.49504 | 31678 ft | 395 kts | 226° |
| 2026-05-05 21:54 | 34.19584 | -95.51598 | 31431 ft | 396 kts | 226° |
| 2026-05-05 21:55 | 34.17533 | -95.53646 | 31190 ft | 397 kts | 226° |
| 2026-05-05 21:55 | 34.15401 | -95.55775 | 30938 ft | 398 kts | 226° |
| 2026-05-05 21:55 | 34.13264 | -95.57906 | 30613 ft | 399 kts | 226° |
| 2026-05-05 21:55 | 34.11131 | -95.60033 | 30173 ft | 400 kts | 226° |
| 2026-05-05 21:56 | 34.09000 | -95.62157 | 29606 ft | 401 kts | 226° |
| 2026-05-05 21:56 | 34.06859 | -95.64285 | 28970 ft | 402 kts | 226° |
| 2026-05-05 21:56 | 34.04689 | -95.66444 | 28475 ft | 399 kts | 225° |
| 2026-05-05 21:56 | 34.02599 | -95.68527 | 28016 ft | 396 kts | 225° |
| 2026-05-05 21:57 | 34.00486 | -95.70631 | 27548 ft | 393 kts | 225° |
| 2026-05-05 21:57 | 33.98392 | -95.72710 | 27078 ft | 390 kts | 225° |
| 2026-05-05 21:57 | 33.96320 | -95.74766 | 26613 ft | 387 kts | 225° |
| 2026-05-05 21:57 | 33.94248 | -95.76833 | 26144 ft | 385 kts | 225° |
| 2026-05-05 21:58 | 33.92231 | -95.78854 | 25688 ft | 382 kts | 225° |
| 2026-05-05 21:58 | 33.90200 | -95.80890 | 25225 ft | 380 kts | 225° |
| 2026-05-05 21:58 | 33.88168 | -95.82916 | 24761 ft | 378 kts | 225° |
| 2026-05-05 21:58 | 33.86152 | -95.84918 | 24301 ft | 375 kts | 225° |
| 2026-05-05 21:59 | 33.84150 | -95.86910 | 23846 ft | 373 kts | 225° |
| 2026-05-05 21:59 | 33.82166 | -95.88880 | 23390 ft | 371 kts | 225° |
| 2026-05-05 21:59 | 33.80186 | -95.90833 | 22936 ft | 369 kts | 225° |
| 2026-05-05 21:59 | 33.78209 | -95.92781 | 22479 ft | 367 kts | 225° |
| 2026-05-05 22:00 | 33.76239 | -95.94721 | 22025 ft | 366 kts | 225° |
| 2026-05-05 22:00 | 33.74296 | -95.96636 | 21575 ft | 364 kts | 225° |
| 2026-05-05 22:00 | 33.72359 | -95.98546 | 21127 ft | 362 kts | 225° |
| 2026-05-05 22:00 | 33.70404 | -96.00471 | 20673 ft | 360 kts | 225° |
| 2026-05-05 22:01 | 33.68492 | -96.02354 | 20230 ft | 358 kts | 225° |
| 2026-05-05 22:01 | 33.66570 | -96.04246 | 19783 ft | 356 kts | 225° |
| 2026-05-05 22:01 | 33.64671 | -96.06113 | 19342 ft | 354 kts | 225° |
| 2026-05-05 22:01 | 33.62775 | -96.07979 | 18900 ft | 352 kts | 225° |
| 2026-05-05 22:02 | 33.60886 | -96.09834 | 18461 ft | 350 kts | 225° |
| 2026-05-05 22:02 | 33.59031 | -96.11658 | 18029 ft | 347 kts | 225° |
| 2026-05-05 22:02 | 33.57188 | -96.13467 | 17600 ft | 345 kts | 225° |
| 2026-05-05 22:02 | 33.55320 | -96.15301 | 17166 ft | 343 kts | 225° |
| 2026-05-05 22:03 | 33.53510 | -96.17076 | 16746 ft | 341 kts | 225° |
| 2026-05-05 22:03 | 33.52057 | -96.18500 | 16409 ft | 340 kts | 225° |
| 2026-05-05 22:03 | 33.49895 | -96.20618 | 15906 ft | 337 kts | 225° |
| 2026-05-05 22:03 | 33.48089 | -96.22384 | 15488 ft | 335 kts | 225° |
| 2026-05-05 22:04 | 33.46312 | -96.24130 | 15075 ft | 332 kts | 226° |
| 2026-05-05 22:04 | 33.44613 | -96.25967 | 14662 ft | 328 kts | 230° |
| 2026-05-05 22:04 | 33.43041 | -96.27930 | 14247 ft | 323 kts | 233° |
| 2026-05-05 22:04 | 33.41572 | -96.29945 | 13837 ft | 320 kts | 234° |
| 2026-05-05 22:05 | 33.40127 | -96.31949 | 13430 ft | 318 kts | 234° |
| 2026-05-05 22:05 | 33.38679 | -96.33955 | 13025 ft | 316 kts | 234° |
| 2026-05-05 22:05 | 33.37292 | -96.35870 | 12634 ft | 314 kts | 234° |
| 2026-05-05 22:05 | 33.35857 | -96.37848 | 12233 ft | 312 kts | 234° |
| 2026-05-05 22:06 | 33.34457 | -96.39774 | 11890 ft | 307 kts | 234° |
| 2026-05-05 22:06 | 33.33153 | -96.41728 | 11831 ft | 289 kts | 242° |
| 2026-05-05 22:06 | 33.32220 | -96.43771 | 11626 ft | 279 kts | 252° |
| 2026-05-05 22:06 | 33.31560 | -96.45937 | 11275 ft | 275 kts | 256° |
| 2026-05-05 22:07 | 33.30970 | -96.48114 | 10775 ft | 278 kts | 256° |
| 2026-05-05 22:07 | 33.30377 | -96.50302 | 10458 ft | 272 kts | 255° |
| 2026-05-05 22:07 | 33.29796 | -96.52402 | 10229 ft | 265 kts | 255° |
| 2026-05-05 22:07 | 33.29219 | -96.54488 | 9852 ft | 264 kts | 256° |
| 2026-05-05 22:08 | 33.28788 | -96.56593 | 9464 ft | 261 kts | 263° |
| 2026-05-05 22:08 | 33.28586 | -96.58752 | 9085 ft | 258 kts | 268° |
| 2026-05-05 22:08 | 33.28492 | -96.60783 | 8731 ft | 256 kts | 269° |
| 2026-05-05 22:08 | 33.28411 | -96.62692 | 8383 ft | 255 kts | 269° |
| 2026-05-05 22:09 | 33.28314 | -96.64912 | 7978 ft | 254 kts | 268° |
| 2026-05-05 22:09 | 33.28217 | -96.66998 | 7604 ft | 253 kts | 268° |
| 2026-05-05 22:09 | 33.28120 | -96.69086 | 7249 ft | 250 kts | 267° |
| 2026-05-05 22:09 | 33.28025 | -96.71119 | 7082 ft | 241 kts | 267° |
| 2026-05-05 22:10 | 33.27934 | -96.73074 | 6915 ft | 232 kts | 267° |
| 2026-05-05 22:10 | 33.27845 | -96.74975 | 6688 ft | 227 kts | 267° |
| 2026-05-05 22:10 | 33.27755 | -96.76852 | 6368 ft | 226 kts | 267° |
| 2026-05-05 22:10 | 33.27644 | -96.78725 | 6014 ft | 227 kts | 261° |
| 2026-05-05 22:11 | 33.26997 | -96.80349 | 5661 ft | 233 kts | 229° |
| 2026-05-05 22:11 | 33.25893 | -96.81548 | 5394 ft | 232 kts | 224° |
| 2026-05-05 22:11 | 33.24727 | -96.82751 | 5078 ft | 232 kts | 225° |
| 2026-05-05 22:11 | 33.23689 | -96.83849 | 4805 ft | 231 kts | 225° |
| 2026-05-05 22:12 | 33.22561 | -96.85063 | 4500 ft | 230 kts | 225° |
| 2026-05-05 22:12 | 33.21369 | -96.86358 | 4190 ft | 229 kts | 225° |
| 2026-05-05 22:12 | 33.20212 | -96.87630 | 3902 ft | 226 kts | 225° |
| 2026-05-05 22:12 | 33.19067 | -96.88895 | 3595 ft | 225 kts | 225° |
| 2026-05-05 22:13 | 33.17906 | -96.90178 | 3289 ft | 224 kts | 225° |
| 2026-05-05 22:13 | 33.16781 | -96.91422 | 3058 ft | 220 kts | 225° |
| 2026-05-05 22:13 | 33.15688 | -96.92628 | 3033 ft | 212 kts | 223° |
| 2026-05-05 22:13 | 33.14590 | -96.93832 | 3030 ft | 212 kts | 224° |
| 2026-05-05 22:14 | 33.13519 | -96.95028 | 3026 ft | 213 kts | 224° |
| 2026-05-05 22:14 | 33.12445 | -96.96221 | 3027 ft | 214 kts | 223° |
| 2026-05-05 22:14 | 33.11335 | -96.97446 | 3027 ft | 213 kts | 223° |
| 2026-05-05 22:14 | 33.10250 | -96.98640 | 3027 ft | 213 kts | 224° |
| 2026-05-05 22:15 | 33.09553 | -96.99407 | 3029 ft | 213 kts | 224° |
| 2026-05-05 22:15 | 33.08198 | -97.00897 | 3027 ft | 213 kts | 224° |
| 2026-05-05 22:15 | 33.07064 | -97.02148 | 3087 ft | 194 kts | 224° |
| 2026-05-05 22:15 | 33.06116 | -97.03191 | 3071 ft | 183 kts | 225° |
| 2026-05-05 22:16 | 33.05189 | -97.04209 | 3043 ft | 182 kts | 225° |
| 2026-05-05 22:16 | 33.04187 | -97.05133 | 3015 ft | 186 kts | 207° |
| 2026-05-05 22:16 | 33.02922 | -97.05450 | 2867 ft | 186 kts | 188° |
| 2026-05-05 22:16 | 33.01675 | -97.05462 | 2603 ft | 181 kts | 183° |
| 2026-05-05 22:17 | 33.00418 | -97.05428 | 2367 ft | 174 kts | 184° |
| 2026-05-05 22:17 | 32.99280 | -97.05414 | 2119 ft | 159 kts | 185° |
| 2026-05-05 22:17 | 32.98228 | -97.05415 | 1893 ft | 146 kts | 187° |
| 2026-05-05 22:17 | 32.97223 | -97.05415 | 1715 ft | 146 kts | 187° |
| 2026-05-05 22:18 | 32.96282 | -97.05431 | 1549 ft | 147 kts | 186° |
| 2026-05-05 22:18 | 32.95606 | -97.05441 | 1429 ft | 147 kts | 176° |